EPHEPHRATA MUNI
METARs for airports near EPH, sorted by distance:
N 0 nm 1276' KEPH 161053Z 35004KT 10SM CLR 06/03 A3010
SE 10 nm 1188' KMWH 161052Z 00000KT 10SM CLR 04/03 A3011
W 28 nm 1248' KEAT 160955Z 28007KT 10SM CLR 08/03 A3011
W 44 nm 1763' KELN 161053Z 06003KT 10SM CLR 02/M01 A3011
S 60 nm 394' KRLD 161035Z 28004KT 10SM CLR 07/05 A3011
SW 61 nm 1098' KYKM 161053Z 27006KT 10SM CLR 01/01 A3011
S 64 nm 410' KPSC 161053Z 35003KT 10SM CLR 04/03 A3011
N 69 nm 1304' KOMK 161053Z 15005KT 10SM SCT110 10/06 A3010
E 77 nm 2462' KSKA 161013Z 08005KT 3SM BR BKN110 04/04 A3012
E 82 nm 2385' KGEG 161053Z 08003KT 10SM FEW120 06/04 A3013
SE 88 nm 1194' KALW 161053Z 10007KT 10SM CLR 09/01 A3011
S 89 nm 644' KHRI 161053Z 16005KT 10SM CLR 06/03 A3012
E 91 nm 1956' KSFF 161053Z 00000KT 5SM BR CLR 06/05 A3014
NE 93 nm 2210' KDEW 161053Z 01003KT 10SM OVC100 07/05 A3014
TAFs for airports near EPH, sorted by distance:
SE 10 nm 1188' KMWH TAF KMWH 160520Z 1606/1706 VRB04KT P6SM SCT100 BKN200
  FM160900 VRB04KT P6SM SCT100 SCT250
  FM161800 17006KT P6SM SCT250
  FM170300 VRB03KT P6SM FEW150 SCT250
W 28 nm 1248' KEAT TAF KEAT 160520Z 1606/1706 30004KT P6SM SCT100 BKN200
  FM160800 31004KT P6SM SCT100 SCT250
  FM161800 VRB04KT P6SM SCT250
  FM170300 VRB02KT P6SM SCT120 BKN250
SW 61 nm 1098' KYKM KYKM 160525Z 1606/1706 29006KT P6SM FEW150 BKN200
  FM160900 VRB03KT P6SM FEW250
S 64 nm 410' KPSC KPSC 160525Z 1606/1706 VRB04KT P6SM SCT200
E 77 nm 2462' KSKA TAF KSKA 160300Z 1603/1709 06006KT 9999 SCT100 BKN150 QNH3014INS
  BECMG 1605/1606 05006KT 9999 FEW100 SCT200 QNH3008INS WND VRB06KT AFT 1615
  BECMG 1617/1618 18009KT 9999 FEW200 QNH2980INS WND 14006KT AFT 1703 TX18/1623Z TN03/1613Z
E 82 nm 2385' KGEG TAF KGEG 160520Z 1606/1706 07005KT P6SM SCT060 SCT090 BKN150
  FM160900 07003KT P6SM SCT090
  FM161800 18007G13KT P6SM SCT250
  FM170000 08004KT P6SM SCT250
SE 88 nm 1194' KALW KALW 160525Z 1606/1706 14007KT P6SM SCT200
  FM161800 24005KT P6SM BKN250
  FM170000 16004KT P6SM FEW250
E 91 nm 1956' KSFF TAF KSFF 160520Z 1606/1706 VRB02KT P6SM SCT070 SCT090 BKN150
  FM160900 07003KT P6SM SCT090
  FM161800 18007G11KT P6SM SCT250
  FM170000 08004KT P6SM SCT250

Shortcut to this page: http://wxbay.com.

Data may contain errors.